sensor_id;sensor_type;location;lat;lon;timestamp;pressure;altitude;pressure_sealevel;temperature;humidity
34586;BME280;20816;50.950;11.108;2022-08-19T00:01:30;97976.84;;;20.67;100.00
34586;BME280;20816;50.950;11.108;2022-08-19T00:04:01;97983.50;;;20.62;100.00
34586;BME280;20816;50.950;11.108;2022-08-19T00:06:29;97977.94;;;20.65;100.00
34586;BME280;20816;50.950;11.108;2022-08-19T00:08:58;97976.22;;;20.64;100.00
34586;BME280;20816;50.950;11.108;2022-08-19T00:11:27;97978.78;;;20.65;100.00
34586;BME280;20816;50.950;11.108;2022-08-19T00:13:55;97969.19;;;20.63;100.00
34586;BME280;20816;50.950;11.108;2022-08-19T00:16:24;97967.81;;;20.57;100.00
34586;BME280;20816;50.950;11.108;2022-08-19T00:18:53;97966.72;;;20.60;100.00
34586;BME280;20816;50.950;11.108;2022-08-19T00:21:24;97967.69;;;20.59;100.00
34586;BME280;20816;50.950;11.108;2022-08-19T00:23:52;97973.25;;;20.56;100.00
34586;BME280;20816;50.950;11.108;2022-08-19T00:26:19;97974.13;;;20.43;100.00
34586;BME280;20816;50.950;11.108;2022-08-19T00:28:45;97971.88;;;20.37;100.00
34586;BME280;20816;50.950;11.108;2022-08-19T00:31:13;97965.16;;;20.32;100.00
34586;BME280;20816;50.950;11.108;2022-08-19T00:33:39;97959.84;;;20.19;100.00
34586;BME280;20816;50.950;11.108;2022-08-19T00:36:07;97962.00;;;20.14;100.00
34586;BME280;20816;50.950;11.108;2022-08-19T00:38:36;97956.47;;;20.04;100.00
34586;BME280;20816;50.950;11.108;2022-08-19T00:41:06;97957.97;;;19.96;100.00
34586;BME280;20816;50.950;11.108;2022-08-19T00:43:33;97950.69;;;19.98;100.00
34586;BME280;20816;50.950;11.108;2022-08-19T00:46:00;97954.97;;;19.87;100.00
34586;BME280;20816;50.950;11.108;2022-08-19T00:48:32;97948.13;;;19.83;100.00
34586;BME280;20816;50.950;11.108;2022-08-19T00:51:00;97948.13;;;19.83;100.00
34586;BME280;20816;50.950;11.108;2022-08-19T00:53:28;97934.06;;;19.81;100.00
34586;BME280;20816;50.950;11.108;2022-08-19T00:55:58;97933.84;;;19.84;100.00
34586;BME280;20816;50.950;11.108;2022-08-19T00:58:29;97933.22;;;19.81;100.00
34586;BME280;20816;50.950;11.108;2022-08-19T01:00:56;97924.78;;;19.74;100.00
34586;BME280;20816;50.950;11.108;2022-08-19T01:03:23;97925.94;;;19.70;100.00
34586;BME280;20816;50.950;11.108;2022-08-19T01:05:51;97931.41;;;19.81;100.00
34586;BME280;20816;50.950;11.108;2022-08-19T01:08:21;97935.56;;;19.73;100.00
34586;BME280;20816;50.950;11.108;2022-08-19T01:10:54;97934.72;;;19.72;100.00
34586;BME280;20816;50.950;11.108;2022-08-19T01:13:24;97930.22;;;19.73;100.00
34586;BME280;20816;50.950;11.108;2022-08-19T01:15:57;97932.78;;;19.74;100.00
34586;BME280;20816;50.950;11.108;2022-08-19T01:18:27;97925.94;;;19.70;100.00
34586;BME280;20816;50.950;11.108;2022-08-19T01:20:56;97922.22;;;19.73;100.00
34586;BME280;20816;50.950;11.108;2022-08-19T01:23:24;97924.03;;;19.72;100.00
34586;BME280;20816;50.950;11.108;2022-08-19T01:26:16;97914.66;;;19.79;100.00
34586;BME280;20816;50.950;11.108;2022-08-19T01:28:46;97903.75;;;19.82;100.00
34586;BME280;20816;50.950;11.108;2022-08-19T01:31:17;97904.50;;;19.84;100.00
34586;BME280;20816;50.950;11.108;2022-08-19T01:33:55;97901.63;;;19.87;100.00
34586;BME280;20816;50.950;11.108;2022-08-19T01:36:47;97898.00;;;19.88;100.00
34586;BME280;20816;50.950;11.108;2022-08-19T01:39:19;97896.31;;;19.87;100.00
34586;BME280;20816;50.950;11.108;2022-08-19T01:41:47;97891.59;;;19.91;100.00
34586;BME280;20816;50.950;11.108;2022-08-19T01:44:15;97896.31;;;19.87;100.00
34586;BME280;20816;50.950;11.108;2022-08-19T01:46:46;97896.06;;;19.91;100.00
34586;BME280;20816;50.950;11.108;2022-08-19T01:49:15;97902.25;;;19.91;100.00
34586;BME280;20816;50.950;11.108;2022-08-19T01:51:42;97912.81;;;19.93;100.00
34586;BME280;20816;50.950;11.108;2022-08-19T01:54:10;97915.28;;;19.96;100.00
34586;BME280;20816;50.950;11.108;2022-08-19T01:56:38;97915.16;;;19.97;100.00
34586;BME280;20816;50.950;11.108;2022-08-19T01:59:11;97901.94;;;19.96;100.00
34586;BME280;20816;50.950;11.108;2022-08-19T02:01:38;97896.81;;;19.93;100.00
34586;BME280;20816;50.950;11.108;2022-08-19T02:04:05;97893.06;;;19.95;100.00
34586;BME280;20816;50.950;11.108;2022-08-19T02:06:32;97884.97;;;19.97;100.00
34586;BME280;20816;50.950;11.108;2022-08-19T02:09:01;97889.53;;;19.95;100.00
34586;BME280;20816;50.950;11.108;2022-08-19T02:11:33;97886.38;;;19.90;100.00
34586;BME280;20816;50.950;11.108;2022-08-19T02:14:02;97877.63;;;19.87;100.00
34586;BME280;20816;50.950;11.108;2022-08-19T02:16:30;97885.84;;;19.84;100.00
34586;BME280;20816;50.950;11.108;2022-08-19T02:18:57;97878.56;;;19.86;100.00
34586;BME280;20816;50.950;11.108;2022-08-19T02:21:27;97870.56;;;19.86;100.00
34586;BME280;20816;50.950;11.108;2022-08-19T02:23:54;97862.81;;;19.83;100.00
34586;BME280;20816;50.950;11.108;2022-08-19T02:26:22;97850.44;;;19.82;100.00
34586;BME280;20816;50.950;11.108;2022-08-19T02:28:48;97852.88;;;19.85;100.00
34586;BME280;20816;50.950;11.108;2022-08-19T02:31:18;97844.25;;;19.82;100.00
34586;BME280;20816;50.950;11.108;2022-08-19T02:33:45;97835.50;;;19.80;100.00
34586;BME280;20816;50.950;11.108;2022-08-19T02:36:13;97850.44;;;19.82;100.00
34586;BME280;20816;50.950;11.108;2022-08-19T02:38:41;97853.84;;;19.84;100.00
34586;BME280;20816;50.950;11.108;2022-08-19T02:41:18;97861.63;;;19.87;100.00
34586;BME280;20816;50.950;11.108;2022-08-19T02:43:47;97853.16;;;19.94;100.00
34586;BME280;20816;50.950;11.108;2022-08-19T02:46:34;97864.91;;;19.91;100.00
34586;BME280;20816;50.950;11.108;2022-08-19T02:49:06;97864.06;;;19.91;100.00
34586;BME280;20816;50.950;11.108;2022-08-19T02:51:38;97862.38;;;19.90;100.00
34586;BME280;20816;50.950;11.108;2022-08-19T02:54:08;97872.59;;;19.96;100.00
34586;BME280;20816;50.950;11.108;2022-08-19T02:56:37;97874.50;;;19.94;100.00
34586;BME280;20816;50.950;11.108;2022-08-19T02:59:04;97887.84;;;19.94;100.00
34586;BME280;20816;50.950;11.108;2022-08-19T03:01:38;97884.00;;;19.98;100.00
34586;BME280;20816;50.950;11.108;2022-08-19T03:04:11;97885.84;;;19.97;100.00
34586;BME280;20816;50.950;11.108;2022-08-19T03:06:44;97883.47;;;19.93;100.00
34586;BME280;20816;50.950;11.108;2022-08-19T03:09:12;97884.69;;;19.88;100.00
34586;BME280;20816;50.950;11.108;2022-08-19T03:11:39;97894.69;;;19.98;100.00
34586;BME280;20816;50.950;11.108;2022-08-19T03:14:08;97907.38;;;19.94;100.00
34586;BME280;20816;50.950;11.108;2022-08-19T03:16:42;97918.88;;;19.95;100.00
34586;BME280;20816;50.950;11.108;2022-08-19T03:19:09;97919.53;;;19.85;100.00
34586;BME280;20816;50.950;11.108;2022-08-19T03:21:35;97903.75;;;19.82;100.00
34586;BME280;20816;50.950;11.108;2022-08-19T03:24:05;97923.19;;;19.84;100.00
34586;BME280;20816;50.950;11.108;2022-08-19T03:26:33;97915.06;;;19.86;100.00
34586;BME280;20816;50.950;11.108;2022-08-19T03:29:04;97917.84;;;19.84;100.00
34586;BME280;20816;50.950;11.108;2022-08-19T03:31:32;97923.81;;;19.88;100.00
34586;BME280;20816;50.950;11.108;2022-08-19T03:34:18;97930.22;;;19.85;100.00
34586;BME280;20816;50.950;11.108;2022-08-19T03:36:46;97934.91;;;19.95;100.00
34586;BME280;20816;50.950;11.108;2022-08-19T03:39:14;97931.28;;;19.96;100.00
34586;BME280;20816;50.950;11.108;2022-08-19T03:41:43;97927.00;;;19.93;100.00
34586;BME280;20816;50.950;11.108;2022-08-19T03:44:19;97933.66;;;19.87;100.00
34586;BME280;20816;50.950;11.108;2022-08-19T03:46:49;97944.09;;;19.91;100.00
34586;BME280;20816;50.950;11.108;2022-08-19T03:49:17;97944.94;;;19.91;100.00
34586;BME280;20816;50.950;11.108;2022-08-19T03:51:45;97951.13;;;19.92;100.00
34586;BME280;20816;50.950;11.108;2022-08-19T03:54:14;97949.19;;;19.94;100.00
34586;BME280;20816;50.950;11.108;2022-08-19T03:56:43;97946.75;;;19.91;100.00
34586;BME280;20816;50.950;11.108;2022-08-19T03:59:14;97955.31;;;19.96;100.00
34586;BME280;20816;50.950;11.108;2022-08-19T04:01:41;97957.97;;;19.96;100.00
34586;BME280;20816;50.950;11.108;2022-08-19T04:04:09;97954.44;;;19.82;100.00
34586;BME280;20816;50.950;11.108;2022-08-19T04:06:37;97957.53;;;19.76;100.00
34586;BME280;20816;50.950;11.108;2022-08-19T04:09:08;97967.13;;;19.79;100.00
34586;BME280;20816;50.950;11.108;2022-08-19T04:11:42;97960.94;;;19.78;100.00
34586;BME280;20816;50.950;11.108;2022-08-19T04:14:13;97962.84;;;19.76;100.00
34586;BME280;20816;50.950;11.108;2022-08-19T04:16:40;97956.66;;;19.76;100.00
34586;BME280;20816;50.950;11.108;2022-08-19T04:19:07;97963.09;;;19.73;100.00
34586;BME280;20816;50.950;11.108;2022-08-19T04:21:34;97949.41;;;19.78;100.00
34586;BME280;20816;50.950;11.108;2022-08-19T04:24:01;97958.06;;;19.69;100.00
34586;BME280;20816;50.950;11.108;2022-08-19T04:26:35;97945.56;;;19.69;100.00
34586;BME280;20816;50.950;11.108;2022-08-19T04:29:07;97954.34;;;19.71;100.00
34586;BME280;20816;50.950;11.108;2022-08-19T04:31:39;97950.47;;;19.63;100.00
34586;BME280;20816;50.950;11.108;2022-08-19T04:34:08;97950.38;;;19.64;100.00
34586;BME280;20816;50.950;11.108;2022-08-19T04:36:38;97953.91;;;19.65;100.00
34586;BME280;20816;50.950;11.108;2022-08-19T04:39:14;97945.06;;;19.64;100.00
34586;BME280;20816;50.950;11.108;2022-08-19T04:41:42;97951.97;;;19.67;100.00
34586;BME280;20816;50.950;11.108;2022-08-19T04:44:30;97941.19;;;19.68;100.00
34586;BME280;20816;50.950;11.108;2022-08-19T04:46:59;97943.03;;;19.68;100.00
34586;BME280;20816;50.950;11.108;2022-08-19T04:49:26;97945.06;;;19.64;100.00
34586;BME280;20816;50.950;11.108;2022-08-19T04:51:54;97950.47;;;19.63;100.00
34586;BME280;20816;50.950;11.108;2022-08-19T04:54:23;97944.41;;;19.60;100.00
34586;BME280;20816;50.950;11.108;2022-08-19T04:57:03;97944.50;;;19.59;100.00
34586;BME280;20816;50.950;11.108;2022-08-19T04:59:32;97948.69;;;19.63;100.00
34586;BME280;20816;50.950;11.108;2022-08-19T05:02:00;97944.09;;;19.65;100.00
34586;BME280;20816;50.950;11.108;2022-08-19T05:04:26;97942.16;;;19.67;100.00
34586;BME280;20816;50.950;11.108;2022-08-19T05:06:59;97946.75;;;19.65;100.00
34586;BME280;20816;50.950;11.108;2022-08-19T05:09:28;97949.63;;;19.62;100.00
34586;BME280;20816;50.950;11.108;2022-08-19T05:12:16;97942.16;;;19.67;100.00
34586;BME280;20816;50.950;11.108;2022-08-19T05:14:43;97933.44;;;19.65;100.00
34586;BME280;20816;50.950;11.108;2022-08-19T05:17:11;97944.94;;;19.66;100.00
34586;BME280;20816;50.950;11.108;2022-08-19T05:19:58;97951.13;;;19.66;100.00
34586;BME280;20816;50.950;11.108;2022-08-19T05:22:45;97954.34;;;19.71;100.00
34586;BME280;20816;50.950;11.108;2022-08-19T05:25:18;97955.94;;;19.74;100.00
34586;BME280;20816;50.950;11.108;2022-08-19T05:27:46;97958.78;;;19.71;100.00
34586;BME280;20816;50.950;11.108;2022-08-19T05:30:13;97957.31;;;19.67;100.00
34586;BME280;20816;50.950;11.108;2022-08-19T05:32:41;97963.28;;;19.70;100.00
34586;BME280;20816;50.950;11.108;2022-08-19T05:35:09;97963.91;;;19.61;100.00
34586;BME280;20816;50.950;11.108;2022-08-19T05:37:36;97960.69;;;19.56;100.00
34586;BME280;20816;50.950;11.108;2022-08-19T05:40:03;97964.13;;;19.58;100.00
34586;BME280;20816;50.950;11.108;2022-08-19T05:42:31;97969.66;;;19.55;100.00
34586;BME280;20816;50.950;11.108;2022-08-19T05:44:57;97960.50;;;19.59;100.00
34586;BME280;20816;50.950;11.108;2022-08-19T05:47:24;97969.13;;;19.63;100.00
34586;BME280;20816;50.950;11.108;2022-08-19T05:49:50;97976.09;;;19.65;100.00
34586;BME280;20816;50.950;11.108;2022-08-19T05:52:17;97979.91;;;19.61;100.00
34586;BME280;20816;50.950;11.108;2022-08-19T05:54:52;97978.00;;;19.63;100.00
34586;BME280;20816;50.950;11.108;2022-08-19T05:57:23;97985.25;;;19.61;100.00
34586;BME280;20816;50.950;11.108;2022-08-19T05:59:50;97973.94;;;19.70;100.00
34586;BME280;20816;50.950;11.108;2022-08-19T06:02:24;97981.00;;;19.71;100.00
34586;BME280;20816;50.950;11.108;2022-08-19T06:04:51;97987.19;;;19.72;100.00
34586;BME280;20816;50.950;11.108;2022-08-19T06:07:18;97992.59;;;19.70;100.00
34586;BME280;20816;50.950;11.108;2022-08-19T06:09:46;97999.34;;;19.63;100.00
34586;BME280;20816;50.950;11.108;2022-08-19T06:12:26;97992.50;;;19.59;100.00
34586;BME280;20816;50.950;11.108;2022-08-19T06:14:57;97998.53;;;19.48;100.00
34586;BME280;20816;50.950;11.108;2022-08-19T06:17:27;98012.13;;;19.58;100.00
34586;BME280;20816;50.950;11.108;2022-08-19T06:19:53;98012.25;;;19.42;100.00
34586;BME280;20816;50.950;11.108;2022-08-19T06:22:20;98016.53;;;19.45;100.00
34586;BME280;20816;50.950;11.108;2022-08-19T06:24:47;98019.31;;;19.43;100.00
34586;BME280;20816;50.950;11.108;2022-08-19T06:27:14;98025.47;;;19.44;100.00
34586;BME280;20816;50.950;11.108;2022-08-19T06:29:42;98021.13;;;19.43;100.00
34586;BME280;20816;50.950;11.108;2022-08-19T06:32:08;98027.84;;;19.48;100.00
34586;BME280;20816;50.950;11.108;2022-08-19T06:34:35;98023.38;;;19.49;100.00
34586;BME280;20816;50.950;11.108;2022-08-19T06:37:02;98031.16;;;19.52;100.00
34586;BME280;20816;50.950;11.108;2022-08-19T06:39:33;98035.16;;;19.59;100.00
34586;BME280;20816;50.950;11.108;2022-08-19T06:42:02;98051.25;;;19.57;100.00
34586;BME280;20816;50.950;11.108;2022-08-19T06:44:31;98045.94;;;19.57;100.00
34586;BME280;20816;50.950;11.108;2022-08-19T06:47:10;98047.00;;;19.68;100.00
34586;BME280;20816;50.950;11.108;2022-08-19T06:49:40;98051.06;;;19.73;100.00
34586;BME280;20816;50.950;11.108;2022-08-19T06:52:08;98063.22;;;19.77;100.00
34586;BME280;20816;50.950;11.108;2022-08-19T06:54:39;98062.28;;;19.78;100.00
34586;BME280;20816;50.950;11.108;2022-08-19T06:57:21;98069.75;;;19.73;100.00
34586;BME280;20816;50.950;11.108;2022-08-19T06:59:48;98072.31;;;19.75;100.00
34586;BME280;20816;50.950;11.108;2022-08-19T07:02:15;98071.13;;;19.79;100.00
34586;BME280;20816;50.950;11.108;2022-08-19T07:04:41;98076.38;;;19.80;100.00
34586;BME280;20816;50.950;11.108;2022-08-19T07:07:14;98075.81;;;19.75;100.00
34586;BME280;20816;50.950;11.108;2022-08-19T07:09:46;98072.75;;;19.81;100.00
34586;BME280;20816;50.950;11.108;2022-08-19T07:12:26;98078.94;;;19.82;100.00
34586;BME280;20816;50.950;11.108;2022-08-19T07:14:57;98083.41;;;19.81;100.00
34586;BME280;20816;50.950;11.108;2022-08-19T07:17:25;98078.59;;;19.86;100.00
34586;BME280;20816;50.950;11.108;2022-08-19T07:19:52;98070.59;;;19.86;100.00
34586;BME280;20816;50.950;11.108;2022-08-19T07:22:20;98070.59;;;19.86;100.00
34586;BME280;20816;50.950;11.108;2022-08-19T07:24:50;98068.91;;;19.85;100.00
34586;BME280;20816;50.950;11.108;2022-08-19T07:27:18;98073.28;;;19.86;100.00
34586;BME280;20816;50.950;11.108;2022-08-19T07:29:49;98069.75;;;19.86;100.00
34586;BME280;20816;50.950;11.108;2022-08-19T07:32:21;98071.03;;;19.93;100.00
34586;BME280;20816;50.950;11.108;2022-08-19T07:34:48;98069.56;;;20.02;100.00
34586;BME280;20816;50.950;11.108;2022-08-19T07:37:15;98072.78;;;20.07;100.00
34586;BME280;20816;50.950;11.108;2022-08-19T07:39:42;98077.69;;;20.13;100.00
34586;BME280;20816;50.950;11.108;2022-08-19T07:42:10;98084.31;;;20.20;100.00
34586;BME280;20816;50.950;11.108;2022-08-19T07:44:40;98088.25;;;20.27;100.00
34586;BME280;20816;50.950;11.108;2022-08-19T07:47:07;98080.78;;;20.20;100.00
34586;BME280;20816;50.950;11.108;2022-08-19T07:49:54;98077.44;;;20.03;100.00
34586;BME280;20816;50.950;11.108;2022-08-19T07:52:21;98091.75;;;19.90;100.00
34586;BME280;20816;50.950;11.108;2022-08-19T07:54:48;98098.78;;;19.91;100.00
34586;BME280;20816;50.950;11.108;2022-08-19T07:57:16;98101.06;;;19.97;100.00
34586;BME280;20816;50.950;11.108;2022-08-19T07:59:42;98104.06;;;20.05;100.00
34586;BME280;20816;50.950;11.108;2022-08-19T08:02:09;98100.19;;;20.09;100.00
34586;BME280;20816;50.950;11.108;2022-08-19T08:04:36;98108.94;;;20.11;100.00
34586;BME280;20816;50.950;11.108;2022-08-19T08:07:21;98112.81;;;20.07;100.00
34586;BME280;20816;50.950;11.108;2022-08-19T08:10:11;98121.88;;;20.17;100.00
34586;BME280;20816;50.950;11.108;2022-08-19T08:12:46;98122.84;;;20.16;100.00
34586;BME280;20816;50.950;11.108;2022-08-19T08:15:33;98128.59;;;19.97;100.00
34586;BME280;20816;50.950;11.108;2022-08-19T08:18:06;98127.41;;;20.01;100.00
34586;BME280;20816;50.950;11.108;2022-08-19T08:20:34;98128.06;;;20.05;100.00
34586;BME280;20816;50.950;11.108;2022-08-19T08:23:01;98133.16;;;19.95;100.00
34586;BME280;20816;50.950;11.108;2022-08-19T08:25:46;98125.13;;;19.82;100.00
34586;BME280;20816;50.950;11.108;2022-08-19T08:28:15;98130.13;;;19.87;100.00
34586;BME280;20816;50.950;11.108;2022-08-19T08:30:44;98126.38;;;20.04;100.00
34586;BME280;20816;50.950;11.108;2022-08-19T08:33:13;98133.81;;;19.99;100.00
34586;BME280;20816;50.950;11.108;2022-08-19T08:35:40;98129.22;;;20.01;100.00
34586;BME280;20816;50.950;11.108;2022-08-19T08:38:12;98138.66;;;20.32;100.00
34586;BME280;20816;50.950;11.108;2022-08-19T08:45:43;98146.16;;;20.39;100.00
34586;BME280;20816;50.950;11.108;2022-08-19T08:51:25;98153.53;;;20.74;100.00
34586;BME280;20816;50.950;11.108;2022-08-19T08:54:01;98149.47;;;20.81;100.00
34586;BME280;20816;50.950;11.108;2022-08-19T08:56:28;98152.03;;;20.95;100.00
34586;BME280;20816;50.950;11.108;2022-08-19T08:59:02;98150.94;;;21.11;100.00
34586;BME280;20816;50.950;11.108;2022-08-19T09:01:30;98159.81;;;20.98;99.16
34586;BME280;20816;50.950;11.108;2022-08-19T09:03:56;98155.22;;;21.00;99.45
34586;BME280;20816;50.950;11.108;2022-08-19T09:09:30;98172.00;;;21.03;98.81
34586;BME280;20816;50.950;11.108;2022-08-19T09:14:55;98165.91;;;21.00;97.57
34586;BME280;20816;50.950;11.108;2022-08-19T09:17:27;98161.66;;;20.85;96.31
34586;BME280;20816;50.950;11.108;2022-08-19T09:20:01;98148.41;;;20.96;96.92
34586;BME280;20816;50.950;11.108;2022-08-19T09:22:37;98146.75;;;21.19;95.09
34586;BME280;20816;50.950;11.108;2022-08-19T09:25:07;98133.81;;;21.26;93.85
34586;BME280;20816;50.950;11.108;2022-08-19T09:27:37;98131.94;;;21.03;89.82
34586;BME280;20816;50.950;11.108;2022-08-19T09:30:13;98132.06;;;20.88;90.54
34586;BME280;20816;50.950;11.108;2022-08-19T09:32:41;98143.06;;;20.84;89.36
34586;BME280;20816;50.950;11.108;2022-08-19T09:35:10;98131.50;;;20.83;89.12
34586;BME280;20816;50.950;11.108;2022-08-19T09:37:37;98137.41;;;20.76;87.72
34586;BME280;20816;50.950;11.108;2022-08-19T09:40:06;98134.75;;;20.63;88.28
34586;BME280;20816;50.950;11.108;2022-08-19T09:42:37;98145.63;;;20.60;87.83
34586;BME280;20816;50.950;11.108;2022-08-19T09:45:17;98146.09;;;20.54;88.55
34586;BME280;20816;50.950;11.108;2022-08-19T09:47:44;98147.38;;;20.61;88.50
34586;BME280;20816;50.950;11.108;2022-08-19T09:50:13;98134.31;;;20.56;88.62
34586;BME280;20816;50.950;11.108;2022-08-19T09:52:42;98133.59;;;20.54;87.65
34586;BME280;20816;50.950;11.108;2022-08-19T09:55:24;98140.75;;;20.54;86.88
34586;BME280;20816;50.950;11.108;2022-08-19T09:57:59;98142.56;;;20.53;87.41
34586;BME280;20816;50.950;11.108;2022-08-19T10:00:26;98140.69;;;20.41;88.18
34586;BME280;20816;50.950;11.108;2022-08-19T10:02:53;98138.25;;;20.51;89.19
34586;BME280;20816;50.950;11.108;2022-08-19T10:05:19;98143.47;;;20.39;88.38
34586;BME280;20816;50.950;11.108;2022-08-19T10:08:08;98145.91;;;20.42;88.65
34586;BME280;20816;50.950;11.108;2022-08-19T10:10:42;98149.91;;;20.50;87.76
34586;BME280;20816;50.950;11.108;2022-08-19T10:13:15;98148.31;;;20.60;87.31
34586;BME280;20816;50.950;11.108;2022-08-19T10:15:42;98146.72;;;20.57;86.75
34586;BME280;20816;50.950;11.108;2022-08-19T10:18:14;98147.56;;;20.58;86.85
34586;BME280;20816;50.950;11.108;2022-08-19T10:20:40;98142.00;;;20.74;87.20
34586;BME280;20816;50.950;11.108;2022-08-19T10:23:08;98147.66;;;20.82;86.32
34586;BME280;20816;50.950;11.108;2022-08-19T10:25:35;98145.66;;;20.85;86.13
34586;BME280;20816;50.950;11.108;2022-08-19T10:28:04;98154.81;;;20.94;85.36
34586;BME280;20816;50.950;11.108;2022-08-19T10:30:36;98149.25;;;20.97;85.09
34586;BME280;20816;50.950;11.108;2022-08-19T10:33:05;98142.47;;;21.17;84.44
34586;BME280;20816;50.950;11.108;2022-08-19T10:35:37;98143.63;;;21.38;84.85
34586;BME280;20816;50.950;11.108;2022-08-19T10:38:22;98141.22;;;21.46;82.90
34586;BME280;20816;50.950;11.108;2022-08-19T10:41:06;98142.22;;;21.69;83.89
34586;BME280;20816;50.950;11.108;2022-08-19T10:43:33;98141.13;;;21.72;83.42
34586;BME280;20816;50.950;11.108;2022-08-19T10:46:03;98137.53;;;21.84;83.19
34586;BME280;20816;50.950;11.108;2022-08-19T10:48:35;98142.81;;;21.73;81.99
34586;BME280;20816;50.950;11.108;2022-08-19T10:51:03;98139.75;;;21.90;82.71
34586;BME280;20816;50.950;11.108;2022-08-19T10:53:49;98133.72;;;21.99;81.89
34586;BME280;20816;50.950;11.108;2022-08-19T10:56:17;98139.41;;;22.19;83.21
34586;BME280;20816;50.950;11.108;2022-08-19T10:59:03;98132.63;;;22.37;83.43
34586;BME280;20816;50.950;11.108;2022-08-19T11:01:31;98135.47;;;22.58;84.19
34586;BME280;20816;50.950;11.108;2022-08-19T11:04:00;98128.41;;;22.68;84.49
34586;BME280;20816;50.950;11.108;2022-08-19T11:06:28;98125.16;;;22.98;83.48
34586;BME280;20816;50.950;11.108;2022-08-19T11:08:54;98126.38;;;22.94;83.75
34586;BME280;20816;50.950;11.108;2022-08-19T11:11:21;98130.50;;;23.09;86.78
34586;BME280;20816;50.950;11.108;2022-08-19T11:13:49;98130.28;;;23.01;87.71
34586;BME280;20816;50.950;11.108;2022-08-19T11:16:21;98145.38;;;23.02;86.65
34586;BME280;20816;50.950;11.108;2022-08-19T11:18:51;98140.38;;;23.09;88.21
34586;BME280;20816;50.950;11.108;2022-08-19T11:21:23;98147.56;;;23.19;88.24
34586;BME280;20816;50.950;11.108;2022-08-19T11:23:55;98144.72;;;23.43;86.99
34586;BME280;20816;50.950;11.108;2022-08-19T11:26:23;98146.69;;;23.41;84.74
34586;BME280;20816;50.950;11.108;2022-08-19T11:28:50;98141.19;;;23.54;86.70
34586;BME280;20816;50.950;11.108;2022-08-19T11:31:25;98153.34;;;23.69;85.67
34586;BME280;20816;50.950;11.108;2022-08-19T11:33:56;98148.63;;;23.39;87.07
34586;BME280;20816;50.950;11.108;2022-08-19T11:36:23;98154.59;;;23.65;86.02
34586;BME280;20816;50.950;11.108;2022-08-19T11:38:50;98160.22;;;23.62;85.38
34586;BME280;20816;50.950;11.108;2022-08-19T11:41:19;98171.25;;;23.80;84.95
34586;BME280;20816;50.950;11.108;2022-08-19T11:43:46;98163.34;;;23.45;84.37
34586;BME280;20816;50.950;11.108;2022-08-19T11:46:14;98155.59;;;23.31;85.50
34586;BME280;20816;50.950;11.108;2022-08-19T11:48:42;98154.22;;;23.36;84.93
34586;BME280;20816;50.950;11.108;2022-08-19T11:51:15;98148.50;;;23.63;83.64
34586;BME280;20816;50.950;11.108;2022-08-19T11:53:44;98154.53;;;23.88;82.84
34586;BME280;20816;50.950;11.108;2022-08-19T11:56:12;98151.00;;;24.08;82.15
34586;BME280;20816;50.950;11.108;2022-08-19T11:58:39;98149.44;;;23.73;82.71
34586;BME280;20816;50.950;11.108;2022-08-19T12:01:09;98143.84;;;23.97;80.98
34586;BME280;20816;50.950;11.108;2022-08-19T12:03:37;98136.00;;;24.05;80.43
34586;BME280;20816;50.950;11.108;2022-08-19T12:06:10;98138.19;;;24.12;80.47
34586;BME280;20816;50.950;11.108;2022-08-19T12:08:42;98121.63;;;24.27;79.67
34586;BME280;20816;50.950;11.108;2022-08-19T12:11:12;98113.09;;;24.43;79.38
34586;BME280;20816;50.950;11.108;2022-08-19T12:13:40;98109.19;;;24.47;78.24
34586;BME280;20816;50.950;11.108;2022-08-19T12:16:09;98110.53;;;24.63;78.58
34586;BME280;20816;50.950;11.108;2022-08-19T12:18:39;98114.66;;;24.97;75.35
34586;BME280;20816;50.950;11.108;2022-08-19T12:21:09;98105.94;;;25.05;74.45
34586;BME280;20816;50.950;11.108;2022-08-19T12:23:37;98100.59;;;25.24;73.21
34586;BME280;20816;50.950;11.108;2022-08-19T12:26:04;98101.13;;;25.68;72.34
34586;BME280;20816;50.950;11.108;2022-08-19T12:28:31;98102.06;;;25.48;71.20
34586;BME280;20816;50.950;11.108;2022-08-19T12:30:58;98107.13;;;25.31;71.69
34586;BME280;20816;50.950;11.108;2022-08-19T12:33:25;98099.34;;;25.19;71.04
34586;BME280;20816;50.950;11.108;2022-08-19T12:35:54;98096.53;;;25.30;71.45
34586;BME280;20816;50.950;11.108;2022-08-19T12:38:21;98094.31;;;25.64;69.73
34586;BME280;20816;50.950;11.108;2022-08-19T12:40:51;98097.59;;;25.67;70.41
34586;BME280;20816;50.950;11.108;2022-08-19T12:43:23;98101.81;;;25.70;70.25
34586;BME280;20816;50.950;11.108;2022-08-19T12:45:51;98089.84;;;25.74;71.24
34586;BME280;20816;50.950;11.108;2022-08-19T12:48:17;98095.19;;;25.14;69.60
34586;BME280;20816;50.950;11.108;2022-08-19T12:51:00;98081.44;;;25.08;70.77
34586;BME280;20816;50.950;11.108;2022-08-19T12:53:28;98070.53;;;24.69;72.28
34586;BME280;20816;50.950;11.108;2022-08-19T12:55:57;98070.78;;;24.66;72.09
34586;BME280;20816;50.950;11.108;2022-08-19T12:58:24;98065.59;;;25.05;72.34
34586;BME280;20816;50.950;11.108;2022-08-19T13:00:53;98080.03;;;25.04;70.93
34586;BME280;20816;50.950;11.108;2022-08-19T13:03:19;98072.44;;;24.88;71.66
34586;BME280;20816;50.950;11.108;2022-08-19T13:05:50;98075.69;;;24.82;71.50
34586;BME280;20816;50.950;11.108;2022-08-19T13:08:17;98063.25;;;24.91;71.57
34586;BME280;20816;50.950;11.108;2022-08-19T13:10:44;98073.47;;;24.97;70.81
34586;BME280;20816;50.950;11.108;2022-08-19T13:13:10;98079.75;;;25.07;69.97